Time;durP1;ratioP1;P1;durP2;ratioP2;P2;SDS_P1;SDS_P2;PMS_P1;PMS_P2;Temp;Humidity;BMP_temperature;BMP_pressure;BME280_temperature;BME280_humidity;BME280_pressure;Samples;Min_cycle;Max_cycle;Signal;HPM_P1;HPM_P2
2021/05/06 00:04:11;;;;;;;1.73;1.45;;;8.10;52.70;;;;;;4995189;28;20224;-76
2021/05/06 00:33:55;;;;;;;4.30;1.55;;;7.70;54.60;;;;;;5000816;28;20232;-75
2021/05/06 00:36:21;;;;;;;2.25;1.95;;;7.70;54.90;;;;;;5013138;28;20363;-75
2021/05/06 00:38:51;;;;;;;1.65;1.20;;;7.80;55.00;;;;;;5013516;28;20211;-76
2021/05/06 00:41:35;;;;;;;2.55;1.40;;;7.80;54.70;;;;;;5013960;28;20668;-75
2021/05/06 00:44:27;;;;;;;5.20;1.80;;;7.80;54.50;;;;;;5013130;28;20228;-75
2021/05/06 00:55:21;;;;;;;3.60;1.70;;;7.80;54.00;;;;;;5013356;28;20234;-75
2021/05/06 00:57:59;;;;;;;1.52;1.42;;;7.80;54.10;;;;;;5013220;28;20601;-75
2021/05/06 01:03:19;;;;;;;2.22;1.67;;;7.90;54.20;;;;;;5013114;28;20703;-74
2021/05/06 01:05:50;;;;;;;4.72;1.48;;;7.90;54.30;;;;;;5013270;28;20212;-75
2021/05/06 01:08:21;;;;;;;2.67;1.90;;;7.90;54.10;;;;;;5013572;28;20314;-75
2021/05/06 01:11:03;;;;;;;1.58;1.40;;;7.90;54.40;;;;;;5013146;28;20200;-75
2021/05/06 01:13:31;;;;;;;4.47;1.83;;;7.90;54.20;;;;;;5012405;28;20274;-74
2021/05/06 01:15:58;;;;;;;1.88;1.40;;;8.00;54.10;;;;;;5013557;28;20665;-75
2021/05/06 01:18:25;;;;;;;3.40;1.52;;;8.00;54.00;;;;;;5013331;28;20282;-74
2021/05/06 01:20:56;;;;;;;1.67;1.33;;;8.00;53.30;;;;;;5016977;28;20247;-74
2021/05/06 01:23:23;;;;;;;1.13;1.00;;;8.00;53.60;;;;;;5018789;28;20227;-74
2021/05/06 01:25:53;;;;;;;2.20;1.60;;;8.00;53.80;;;;;;5027013;28;20219;-75
2021/05/06 01:28:21;;;;;;;1.55;1.45;;;8.00;53.60;;;;;;5031526;28;20227;-73
2021/05/06 01:30:52;;;;;;;3.90;1.55;;;7.90;53.80;;;;;;5031767;28;20222;-74
2021/05/06 01:33:21;;;;;;;1.30;1.20;;;7.90;53.80;;;;;;5028672;28;20681;-75
2021/05/06 01:35:52;;;;;;;1.83;1.65;;;7.90;53.90;;;;;;5023203;28;20207;-74
2021/05/06 01:38:34;;;;;;;1.40;1.23;;;8.00;54.30;;;;;;5019334;28;20212;-74
2021/05/06 01:43:58;;;;;;;1.30;1.20;;;7.90;54.10;;;;;;5005220;28;20215;-75
2021/05/06 01:46:38;;;;;;;1.70;1.60;;;7.90;54.30;;;;;;5009315;28;20621;-75
2021/05/06 01:57:39;;;;;;;1.50;1.25;;;8.00;53.80;;;;;;5010885;28;20222;-74
2021/05/06 02:00:10;;;;;;;1.80;1.70;;;8.00;53.40;;;;;;5011677;28;20667;-74
2021/05/06 02:02:36;;;;;;;2.13;1.40;;;8.10;53.70;;;;;;5012461;28;20571;-73
2021/05/06 02:05:04;;;;;;;2.50;1.55;;;8.10;54.10;;;;;;5011348;28;20211;-75
2021/05/06 02:07:31;;;;;;;1.55;1.45;;;8.10;54.60;;;;;;5013980;28;20287;-72
2021/05/06 02:09:58;;;;;;;6.50;1.60;;;8.10;54.90;;;;;;5025098;28;20568;-74
2021/05/06 02:12:25;;;;;;;2.17;1.40;;;8.10;55.90;;;;;;5013380;28;20291;-75
2021/05/06 02:14:54;;;;;;;2.35;1.73;;;8.10;56.20;;;;;;5011293;28;20253;-74
2021/05/06 02:17:21;;;;;;;1.85;1.33;;;8.10;56.20;;;;;;5011171;28;20204;-75
2021/05/06 02:19:48;;;;;;;3.20;1.30;;;8.10;55.40;;;;;;5011606;28;20286;-75
2021/05/06 02:22:16;;;;;;;5.05;1.58;;;8.10;55.50;;;;;;5011618;28;20204;-74
2021/05/06 02:24:43;;;;;;;2.50;1.60;;;8.10;55.20;;;;;;5010458;28;20201;-75
2021/05/06 02:27:11;;;;;;;2.40;1.65;;;8.10;54.10;;;;;;5010929;28;20764;-75
2021/05/06 02:29:37;;;;;;;1.85;1.50;;;8.20;53.40;;;;;;5018436;28;20315;-74
2021/05/06 02:32:05;;;;;;;2.67;1.45;;;8.20;53.30;;;;;;4996671;28;20215;-75
2021/05/06 02:34:32;;;;;;;2.92;1.60;;;8.20;52.40;;;;;;4992531;28;20232;-74
2021/05/06 02:36:58;;;;;;;5.22;1.67;;;8.20;52.30;;;;;;5011426;28;20277;-75
2021/05/06 02:39:25;;;;;;;1.90;1.35;;;8.20;52.00;;;;;;5012393;28;20235;-75
2021/05/06 02:41:51;;;;;;;2.25;1.80;;;8.20;52.00;;;;;;5011277;28;20680;-75
2021/05/06 02:44:18;;;;;;;3.85;1.50;;;8.20;51.90;;;;;;5011610;28;20238;-74
2021/05/06 02:46:45;;;;;;;3.17;1.77;;;8.10;51.70;;;;;;5010587;28;20702;-75
2021/05/06 02:49:11;;;;;;;2.20;1.63;;;8.10;51.80;;;;;;5011230;28;20661;-74
2021/05/06 02:51:41;;;;;;;2.80;1.42;;;8.10;51.40;;;;;;5011139;28;20200;-75
2021/05/06 02:54:08;;;;;;;2.10;1.40;;;8.20;51.70;;;;;;5011059;28;20778;-75
2021/05/06 02:56:37;;;;;;;6.05;1.80;;;8.20;51.70;;;;;;5013030;28;20652;-75
2021/05/06 02:59:20;;;;;;;4.93;1.63;;;8.20;51.40;;;;;;5014833;28;20660;-75
2021/05/06 03:04:31;;;;;;;1.67;1.50;;;8.20;51.60;;;;;;5014928;28;20238;-75
2021/05/06 03:07:00;;;;;;;2.38;1.70;;;8.20;51.80;;;;;;5014359;28;20550;-75
2021/05/06 03:09:36;;;;;;;4.78;1.90;;;8.20;51.50;;;;;;5014885;28;20228;-74
2021/05/06 03:12:14;;;;;;;4.32;1.90;;;8.20;51.60;;;;;;5025766;28;20204;-73
2021/05/06 03:14:59;;;;;;;3.03;2.00;;;8.20;51.60;;;;;;5038641;28;20234;-72
2021/05/06 03:22:54;;;;;;;6.85;1.80;;;8.30;50.70;;;;;;4997920;28;20247;-74
2021/05/06 03:25:22;;;;;;;2.97;1.40;;;8.30;50.70;;;;;;5021141;28;20207;-73
2021/05/06 03:27:52;;;;;;;2.35;1.90;;;8.30;50.90;;;;;;5020156;28;20371;-74
2021/05/06 03:30:53;;;;;;;3.25;1.70;;;8.30;50.70;;;;;;4995058;28;20228;-73
2021/05/06 03:41:52;;;;;;;3.00;2.70;;;8.20;53.40;;;;;;4989121;28;20583;-74
2021/05/06 04:11:58;;;;;;;5.72;2.35;;;7.60;68.00;;;;;;5013515;28;20219;-74
2021/05/06 04:17:40;;;;;;;3.40;2.05;;;7.50;68.10;;;;;;5013680;28;20626;-74
2021/05/06 04:25:49;;;;;;;2.40;2.20;;;7.50;69.50;;;;;;4995195;28;20215;-73
2021/05/06 04:36:33;;;;;;;3.20;2.45;;;7.50;75.10;;;;;;5022260;28;20231;-74
2021/05/06 04:39:00;;;;;;;3.88;2.17;;;7.50;76.10;;;;;;5032348;28;20215;-74
2021/05/06 04:41:37;;;;;;;5.60;2.55;;;7.50;76.20;;;;;;5032687;28;20192;-73
2021/05/06 04:55:08;;;;;;;5.40;2.50;;;7.70;75.30;;;;;;5035451;28;20211;-73
2021/05/06 04:57:55;;;;;;;2.95;2.17;;;7.80;73.90;;;;;;5028185;28;20721;-73
2021/05/06 05:03:34;;;;;;;3.67;2.85;;;8.20;71.40;;;;;;5015109;28;20247;-73
2021/05/06 05:06:00;;;;;;;3.67;2.40;;;8.50;69.00;;;;;;5017655;28;20215;-72
2021/05/06 05:08:30;;;;;;;4.55;2.03;;;8.80;66.40;;;;;;5015622;28;20688;-73
2021/05/06 05:13:54;;;;;;;4.18;2.20;;;9.00;63.10;;;;;;5018568;28;20303;-72
2021/05/06 05:24:44;;;;;;;3.42;2.33;;;8.60;67.30;;;;;;5018215;28;20243;-73
2021/05/06 05:27:11;;;;;;;6.13;4.00;;;8.60;67.30;;;;;;5015590;28;20231;-73
2021/05/06 05:29:46;;;;;;;5.03;2.60;;;8.60;67.30;;;;;;5014231;28;20315;-73
2021/05/06 05:32:12;;;;;;;4.32;2.30;;;8.40;67.20;;;;;;5015339;28;20203;-74
2021/05/06 05:34:41;;;;;;;4.05;2.53;;;8.40;69.00;;;;;;5013146;28;20250;-74
2021/05/06 05:37:14;;;;;;;8.23;3.10;;;8.30;71.50;;;;;;5012355;28;20207;-74
2021/05/06 05:39:48;;;;;;;4.75;2.75;;;8.30;74.10;;;;;;5013247;28;20753;-74
2021/05/06 05:42:25;;;;;;;5.13;3.17;;;8.30;75.80;;;;;;5012938;28;20256;-74
2021/05/06 05:55:55;;;;;;;3.38;2.92;;;8.30;77.20;;;;;;5012861;28;20693;-75
2021/05/06 05:58:22;;;;;;;3.00;2.70;;;8.40;75.90;;;;;;5012633;28;20727;-74
2021/05/06 06:00:49;;;;;;;5.65;3.75;;;8.40;75.90;;;;;;5013333;28;20214;-75
2021/05/06 06:03:15;;;;;;;7.20;3.25;;;8.60;76.10;;;;;;5012741;28;20310;-74
2021/05/06 06:05:42;;;;;;;6.15;3.00;;;8.60;76.70;;;;;;5012328;28;20298;-75
2021/05/06 06:08:08;;;;;;;5.30;3.70;;;8.70;76.80;;;;;;5012711;28;20204;-74
2021/05/06 06:10:35;;;;;;;3.78;2.55;;;8.60;75.10;;;;;;5013963;28;20278;-74
2021/05/06 06:13:01;;;;;;;4.32;3.42;;;8.70;74.10;;;;;;5013474;28;20362;-75
2021/05/06 06:15:43;;;;;;;2.67;2.35;;;8.70;73.10;;;;;;5013234;28;20235;-74
2021/05/06 06:18:13;;;;;;;8.25;4.40;;;8.70;72.90;;;;;;5011977;28;20204;-74
2021/05/06 06:20:42;;;;;;;4.30;2.65;;;8.60;74.50;;;;;;5013082;28;20226;-74
2021/05/06 06:23:08;;;;;;;3.17;2.90;;;8.50;74.50;;;;;;5013507;28;20269;-73
2021/05/06 06:25:35;;;;;;;6.38;3.10;;;8.60;73.90;;;;;;5013304;28;20611;-73
2021/05/06 06:28:01;;;;;;;3.47;3.10;;;8.60;73.70;;;;;;5012003;28;20295;-73
2021/05/06 06:30:29;;;;;;;7.90;3.40;;;8.70;74.70;;;;;;5015192;28;20227;-73
2021/05/06 06:32:57;;;;;;;3.65;3.03;;;8.80;74.60;;;;;;5016633;28;20228;-74
2021/05/06 06:35:23;;;;;;;4.40;2.63;;;8.80;73.20;;;;;;5016341;28;20209;-74
2021/05/06 06:37:50;;;;;;;3.70;2.55;;;8.80;71.90;;;;;;5015870;28;20212;-74
2021/05/06 06:40:16;;;;;;;5.80;2.60;;;8.80;71.20;;;;;;5016091;28;20230;-73
2021/05/06 06:42:43;;;;;;;4.60;2.85;;;8.90;71.90;;;;;;5016459;28;20314;-73
2021/05/06 06:45:09;;;;;;;3.33;2.78;;;8.90;69.80;;;;;;5017281;28;20253;-73
2021/05/06 06:47:37;;;;;;;4.20;3.10;;;8.70;69.30;;;;;;5018584;28;20204;-73
2021/05/06 06:50:04;;;;;;;6.68;2.70;;;8.60;70.50;;;;;;5019045;28;20326;-75
2021/05/06 06:52:30;;;;;;;2.90;2.50;;;8.60;70.40;;;;;;5016499;28;20231;-74
2021/05/06 06:54:57;;;;;;;4.75;2.95;;;8.70;69.90;;;;;;5015458;28;20323;-73
2021/05/06 06:57:23;;;;;;;2.92;2.55;;;8.60;69.30;;;;;;5014981;28;20290;-73
2021/05/06 06:59:49;;;;;;;6.95;3.10;;;8.60;70.20;;;;;;5016226;28;20267;-75
2021/05/06 07:02:16;;;;;;;4.53;2.78;;;8.60;71.40;;;;;;5020702;28;20257;-74
2021/05/06 07:04:47;;;;;;;4.22;3.10;;;8.40;71.60;;;;;;5017005;28;20212;-74
2021/05/06 07:07:14;;;;;;;4.90;3.35;;;8.30;73.40;;;;;;5017060;28;20278;-75
2021/05/06 07:09:41;;;;;;;5.45;3.60;;;8.20;75.10;;;;;;5015916;28;20224;-75
2021/05/06 07:12:08;;;;;;;3.20;2.75;;;8.20;75.70;;;;;;5018180;28;20203;-75
2021/05/06 07:14:37;;;;;;;7.07;3.28;;;8.30;77.50;;;;;;5019467;28;20216;-76
2021/05/06 07:17:04;;;;;;;4.57;2.63;;;8.30;77.80;;;;;;5018548;28;20664;-75
2021/05/06 07:19:30;;;;;;;3.72;2.95;;;8.40;78.00;;;;;;5018022;28;20238;-77
2021/05/06 07:21:58;;;;;;;3.47;3.15;;;8.50;77.50;;;;;;5018406;28;20353;-76
2021/05/06 07:24:24;;;;;;;5.60;3.05;;;8.60;76.10;;;;;;5019844;28;20338;-78
2021/05/06 07:26:51;;;;;;;4.10;3.38;;;8.70;76.10;;;;;;5021499;28;20576;-78
2021/05/06 07:29:20;;;;;;;6.70;3.20;;;8.70;76.80;;;;;;5018231;28;20219;-79
2021/05/06 07:31:48;;;;;;;4.80;3.53;;;8.80;75.00;;;;;;5018139;28;20208;-77
2021/05/06 07:34:15;;;;;;;4.32;2.85;;;8.80;73.20;;;;;;5005527;28;20247;-78
2021/05/06 07:36:41;;;;;;;4.05;3.55;;;8.90;73.20;;;;;;5012543;28;20211;-79
2021/05/06 07:39:09;;;;;;;6.78;3.40;;;8.80;73.20;;;;;;5018716;28;20620;-76
2021/05/06 07:41:35;;;;;;;7.22;3.15;;;8.80;72.90;;;;;;5003843;28;20303;-76
2021/05/06 07:44:02;;;;;;;5.25;3.30;;;8.80;71.90;;;;;;4998975;28;20240;-77
2021/05/06 07:46:28;;;;;;;7.10;3.75;;;8.90;72.00;;;;;;5012934;28;20284;-78
2021/05/06 07:48:55;;;;;;;5.18;3.30;;;9.00;73.10;;;;;;5020613;28;20766;-77
2021/05/06 07:51:22;;;;;;;4.10;3.40;;;9.00;72.40;;;;;;5031607;28;20200;-76
2021/05/06 07:53:50;;;;;;;6.22;3.55;;;9.00;72.10;;;;;;5026692;28;20374;-76
2021/05/06 07:56:19;;;;;;;4.35;3.25;;;9.10;70.50;;;;;;5030342;28;20240;-76
2021/05/06 07:58:46;;;;;;;5.35;3.25;;;9.10;71.20;;;;;;5034847;28;20204;-77
2021/05/06 08:01:12;;;;;;;5.97;3.20;;;9.20;68.90;;;;;;5028648;28;20227;-75
2021/05/06 08:03:39;;;;;;;6.72;3.63;;;9.30;68.90;;;;;;5021181;28;20235;-74
2021/05/06 08:06:06;;;;;;;4.00;3.17;;;9.30;68.60;;;;;;5021844;28;20672;-77
2021/05/06 08:08:32;;;;;;;7.10;3.53;;;9.30;68.80;;;;;;5024034;28;20207;-77
2021/05/06 08:11:00;;;;;;;9.75;3.47;;;9.40;68.40;;;;;;5023449;28;20484;-77
2021/05/06 08:13:28;;;;;;;6.15;3.42;;;9.40;68.10;;;;;;5022655;28;20223;-77
2021/05/06 08:15:56;;;;;;;7.72;3.70;;;9.60;68.20;;;;;;5016867;28;20671;-77
2021/05/06 08:18:24;;;;;;;4.03;2.95;;;9.80;66.10;;;;;;5016463;28;20212;-77
2021/05/06 08:20:50;;;;;;;3.42;2.90;;;9.80;64.70;;;;;;5019459;28;20208;-76
2021/05/06 08:23:17;;;;;;;6.03;3.30;;;9.80;63.60;;;;;;5018096;28;20232;-76
2021/05/06 08:25:43;;;;;;;6.88;3.67;;;10.00;62.30;;;;;;5019815;28;20223;-77
2021/05/06 08:28:09;;;;;;;4.15;3.00;;;10.00;63.10;;;;;;5016340;28;20688;-78
2021/05/06 08:30:37;;;;;;;4.90;3.30;;;10.00;62.20;;;;;;5017725;28;20259;-76
2021/05/06 08:33:05;;;;;;;4.05;2.67;;;10.00;61.80;;;;;;5019042;28;20323;-76
2021/05/06 08:35:31;;;;;;;3.67;3.13;;;10.10;60.80;;;;;;5019921;28;20223;-77
2021/05/06 08:37:58;;;;;;;10.38;4.55;;;10.10;60.60;;;;;;5022262;28;20218;-77
2021/05/06 08:40:24;;;;;;;4.35;3.42;;;10.10;60.60;;;;;;5020093;28;20231;-76
2021/05/06 08:42:53;;;;;;;6.93;3.80;;;10.20;60.30;;;;;;5017063;28;20307;-76
2021/05/06 08:45:21;;;;;;;4.82;3.13;;;10.20;60.00;;;;;;5020224;28;20247;-76
2021/05/06 08:47:50;;;;;;;6.00;4.28;;;10.10;59.20;;;;;;5018607;28;20208;-75
2021/05/06 08:50:17;;;;;;;7.22;3.30;;;10.20;58.90;;;;;;5016485;28;20259;-77
2021/05/06 08:52:47;;;;;;;7.15;3.38;;;10.20;59.80;;;;;;5016024;28;20228;-76
2021/05/06 08:55:14;;;;;;;5.65;3.45;;;10.20;60.10;;;;;;5016419;28;20238;-75
2021/05/06 08:57:40;;;;;;;5.55;3.25;;;10.20;58.90;;;;;;5020615;28;20212;-77
2021/05/06 09:00:08;;;;;;;4.30;3.10;;;10.30;56.90;;;;;;5022695;28;20719;-76
2021/05/06 09:02:34;;;;;;;5.55;3.42;;;10.30;57.30;;;;;;5018361;28;20589;-75
2021/05/06 09:05:06;;;;;;;3.20;2.83;;;10.40;57.70;;;;;;5015798;28;20334;-78
2021/05/06 09:07:32;;;;;;;5.30;2.92;;;10.60;57.90;;;;;;5019700;28;20251;-77
2021/05/06 09:09:59;;;;;;;5.22;3.10;;;10.80;56.70;;;;;;5016843;28;20698;-78
2021/05/06 09:12:36;;;;;;;5.10;3.20;;;10.80;55.70;;;;;;5017277;28;20676;-77
2021/05/06 09:15:12;;;;;;;3.58;2.97;;;10.80;54.90;;;;;;5016948;28;20211;-77
2021/05/06 09:17:39;;;;;;;4.18;3.20;;;10.90;56.10;;;;;;5017626;28;20208;-76
2021/05/06 09:20:15;;;;;;;4.65;3.05;;;10.90;54.80;;;;;;5019692;28;20230;-77
2021/05/06 09:22:43;;;;;;;6.47;3.58;;;11.00;54.20;;;;;;5018502;28;20254;-77
2021/05/06 09:25:26;;;;;;;5.95;3.30;;;11.00;53.30;;;;;;5013450;28;20208;-77
2021/05/06 09:28:11;;;;;;;6.40;2.95;;;10.90;53.90;;;;;;5015106;28;20283;-77
2021/05/06 09:30:49;;;;;;;5.30;2.75;;;10.90;51.80;;;;;;5016020;28;20311;-77
2021/05/06 09:33:16;;;;;;;4.05;3.40;;;10.90;53.30;;;;;;5013986;28;20719;-75
2021/05/06 09:35:44;;;;;;;5.53;3.08;;;10.90;53.10;;;;;;5014648;28;20660;-77
2021/05/06 09:38:30;;;;;;;4.20;2.80;;;10.90;53.40;;;;;;5014988;28;20246;-77
2021/05/06 09:41:00;;;;;;;7.15;2.95;;;10.90;53.60;;;;;;5014499;28;20214;-77
2021/05/06 09:43:29;;;;;;;6.38;3.60;;;10.90;53.30;;;;;;5014406;28;20322;-77
2021/05/06 09:45:55;;;;;;;4.10;3.17;;;10.90;54.40;;;;;;5014384;28;20208;-77
2021/05/06 09:48:23;;;;;;;5.35;3.55;;;10.80;54.10;;;;;;5018458;28;20212;-78
2021/05/06 09:50:53;;;;;;;4.50;3.28;;;10.80;54.70;;;;;;5015725;28;20235;-75
2021/05/06 09:53:23;;;;;;;3.92;3.28;;;10.70;54.80;;;;;;5015831;28;20258;-76
2021/05/06 09:55:50;;;;;;;6.30;2.92;;;10.60;55.50;;;;;;5016147;28;20204;-75
2021/05/06 09:58:19;;;;;;;3.40;3.10;;;10.70;56.30;;;;;;5014236;28;20690;-77
2021/05/06 10:00:47;;;;;;;6.32;3.20;;;10.90;55.40;;;;;;5014201;28;20204;-75
2021/05/06 10:03:15;;;;;;;5.65;3.60;;;10.80;52.80;;;;;;5014694;28;20242;-76
2021/05/06 10:05:42;;;;;;;7.22;2.88;;;10.80;54.00;;;;;;5018897;28;20250;-76
2021/05/06 10:08:10;;;;;;;4.82;3.47;;;10.70;53.60;;;;;;5019571;28;20290;-77
2021/05/06 10:10:38;;;;;;;4.88;3.00;;;10.80;54.30;;;;;;5018386;28;20262;-76
2021/05/06 10:13:07;;;;;;;6.82;3.15;;;10.90;54.10;;;;;;5019056;28;20291;-77
2021/05/06 10:15:34;;;;;;;6.30;3.50;;;11.00;52.60;;;;;;5020676;28;20214;-79
2021/05/06 10:18:00;;;;;;;6.72;3.45;;;10.90;53.70;;;;;;5018782;28;20243;-77
2021/05/06 10:20:28;;;;;;;5.07;3.15;;;11.10;53.00;;;;;;5018511;28;20244;-77
2021/05/06 10:22:57;;;;;;;8.43;3.40;;;11.40;53.00;;;;;;5018602;28;20298;-78
2021/05/06 10:25:25;;;;;;;4.20;2.78;;;11.60;51.90;;;;;;5017260;28;20353;-78
2021/05/06 10:27:53;;;;;;;7.40;3.20;;;11.70;50.80;;;;;;5024443;28;20223;-78
2021/05/06 10:30:21;;;;;;;6.32;3.13;;;11.70;50.80;;;;;;5019996;28;20231;-78
2021/05/06 10:32:48;;;;;;;5.22;3.00;;;11.80;50.90;;;;;;5017621;28;20282;-78
2021/05/06 10:35:19;;;;;;;4.18;2.88;;;11.70;49.80;;;;;;5017314;28;20212;-77
2021/05/06 10:37:52;;;;;;;4.65;3.20;;;11.60;48.80;;;;;;5020856;28;20223;-75
2021/05/06 10:40:30;;;;;;;6.22;2.60;;;11.40;50.50;;;;;;5019310;28;20254;-76
2021/05/06 10:43:16;;;;;;;7.85;3.00;;;11.40;50.50;;;;;;5026902;28;20296;-77
2021/05/06 10:45:43;;;;;;;5.70;2.50;;;11.30;50.60;;;;;;5017939;28;20361;-76
2021/05/06 10:48:10;;;;;;;3.58;2.33;;;11.10;50.30;;;;;;5016659;28;20637;-77
2021/05/06 10:50:39;;;;;;;2.30;1.98;;;11.00;49.70;;;;;;5015878;28;20232;-77
2021/05/06 10:53:07;;;;;;;2.15;1.60;;;11.00;49.10;;;;;;5016467;28;20767;-76
2021/05/06 10:55:53;;;;;;;2.78;1.88;;;11.10;48.90;;;;;;5012718;28;20271;-75
2021/05/06 10:58:42;;;;;;;2.60;2.00;;;11.30;48.60;;;;;;5015865;28;20204;-76
2021/05/06 11:01:22;;;;;;;3.78;1.75;;;11.40;48.20;;;;;;5033284;28;20212;-78
2021/05/06 11:04:07;;;;;;;3.00;1.52;;;11.40;48.50;;;;;;5026745;28;20231;-76
2021/05/06 11:06:39;;;;;;;1.50;1.40;;;11.40;49.60;;;;;;5031576;28;20535;-76
2021/05/06 11:09:42;;;;;;;1.83;1.20;;;11.60;49.90;;;;;;5034195;28;20199;-76
2021/05/06 11:12:29;;;;;;;1.70;1.60;;;11.60;48.90;;;;;;4981259;28;20212;-77
2021/05/06 11:15:31;;;;;;;2.67;1.77;;;11.60;50.00;;;;;;5016194;28;20404;-75
2021/05/06 11:18:03;;;;;;;1.83;1.67;;;11.70;49.60;;;;;;5016617;28;20215;-77
2021/05/06 11:20:49;;;;;;;2.55;1.80;;;11.70;49.30;;;;;;5015935;28;20286;-76
2021/05/06 11:23:21;;;;;;;2.58;1.30;;;11.70;50.10;;;;;;5016329;28;20239;-77
2021/05/06 11:25:49;;;;;;;2.40;1.67;;;11.60;50.10;;;;;;5015917;28;20298;-76
2021/05/06 11:28:41;;;;;;;1.80;1.67;;;11.50;50.60;;;;;;5016066;28;20212;-78
2021/05/06 11:31:08;;;;;;;1.90;1.50;;;11.10;51.80;;;;;;5016415;28;20247;-78
2021/05/06 11:33:35;;;;;;;2.92;1.85;;;11.10;51.30;;;;;;5016543;28;20891;-77
2021/05/06 11:36:04;;;;;;;1.50;1.20;;;11.00;52.70;;;;;;5018353;28;20291;-76
2021/05/06 11:38:50;;;;;;;1.73;1.60;;;10.90;51.30;;;;;;5015552;28;20219;-74
2021/05/06 11:41:19;;;;;;;1.70;1.60;;;11.10;52.60;;;;;;5015607;28;20282;-77
2021/05/06 11:43:48;;;;;;;1.88;1.67;;;11.20;51.30;;;;;;5018127;28;20711;-78
2021/05/06 11:46:16;;;;;;;4.80;1.70;;;11.50;50.60;;;;;;5018933;28;20207;-80
2021/05/06 11:48:44;;;;;;;1.63;1.30;;;11.50;50.60;;;;;;5025192;28;20231;-76
2021/05/06 11:51:23;;;;;;;2.78;1.60;;;11.60;51.90;;;;;;5028233;28;20235;-78
2021/05/06 11:54:05;;;;;;;1.55;1.45;;;11.60;52.00;;;;;;5026130;28;20493;-77
2021/05/06 11:56:33;;;;;;;3.28;1.55;;;11.60;50.70;;;;;;5027924;28;20203;-80
2021/05/06 11:59:00;;;;;;;3.05;1.38;;;11.60;50.70;;;;;;5026181;28;20676;-76
2021/05/06 12:01:27;;;;;;;6.63;2.10;;;11.50;51.20;;;;;;5020261;28;20261;-80
2021/05/06 12:03:54;;;;;;;3.15;1.88;;;11.60;50.70;;;;;;5003285;28;20224;-78
2021/05/06 12:06:32;;;;;;;3.00;2.03;;;11.60;50.70;;;;;;5003992;28;20200;-80
2021/05/06 12:09:00;;;;;;;2.15;1.35;;;11.70;50.80;;;;;;5000349;28;20391;-79
2021/05/06 12:11:34;;;;;;;1.65;1.15;;;11.90;49.50;;;;;;5015549;28;20204;-79
2021/05/06 12:14:02;;;;;;;1.83;1.15;;;11.90;49.70;;;;;;5021698;28;20273;-78
2021/05/06 12:16:28;;;;;;;3.63;1.10;;;12.00;48.60;;;;;;5021428;28;20208;-79
2021/05/06 12:19:00;;;;;;;1.45;1.02;;;12.00;49.50;;;;;;5028762;28;20224;-76
2021/05/06 12:21:38;;;;;;;0.80;0.80;;;12.00;48.20;;;;;;5021316;28;20314;-78
2021/05/06 12:24:07;;;;;;;1.88;0.75;;;12.00;47.60;;;;;;5016854;28;20261;-77
2021/05/06 12:26:34;;;;;;;1.52;1.40;;;11.90;48.90;;;;;;5021484;28;20342;-78
2021/05/06 12:29:01;;;;;;;1.80;1.30;;;11.80;50.80;;;;;;5017599;28;20239;-78
2021/05/06 12:31:28;;;;;;;1.15;0.90;;;11.50;50.60;;;;;;5017851;28;20235;-77
2021/05/06 12:33:54;;;;;;;1.92;0.95;;;11.20;50.30;;;;;;5015781;28;20324;-77
2021/05/06 12:36:21;;;;;;;1.35;1.00;;;11.30;50.50;;;;;;5016527;28;20295;-79
2021/05/06 12:38:49;;;;;;;1.40;1.08;;;11.20;50.40;;;;;;5021751;28;20235;-79
2021/05/06 12:41:17;;;;;;;1.30;0.80;;;11.30;54.50;;;;;;5029528;28;20235;-77
2021/05/06 12:43:48;;;;;;;1.17;0.80;;;11.40;53.40;;;;;;5026762;28;20232;-77
2021/05/06 12:46:25;;;;;;;1.00;0.90;;;11.30;53.50;;;;;;5016139;28;20212;-76
2021/05/06 12:48:54;;;;;;;1.90;1.00;;;11.30;53.80;;;;;;5016737;28;20207;-77
2021/05/06 12:51:27;;;;;;;0.88;0.88;;;11.30;54.70;;;;;;5015827;28;20256;-76
2021/05/06 12:54:05;;;;;;;2.90;1.00;;;11.20;54.50;;;;;;5016887;28;20614;-80
2021/05/06 12:56:33;;;;;;;1.30;0.90;;;11.00;57.00;;;;;;5017015;28;20192;-77
2021/05/06 12:59:24;;;;;;;1.08;0.70;;;10.80;56.00;;;;;;5018083;28;20211;-81
2021/05/06 13:01:52;;;;;;;1.30;1.20;;;10.60;56.50;;;;;;5017264;28;20188;-78
2021/05/06 13:04:19;;;;;;;1.25;1.15;;;10.60;58.20;;;;;;5017259;28;20309;-78
2021/05/06 13:06:46;;;;;;;1.00;1.00;;;10.60;59.20;;;;;;5018027;28;20208;-80
2021/05/06 13:09:15;;;;;;;1.30;1.13;;;10.50;60.10;;;;;;5021811;28;20204;-76
2021/05/06 13:11:42;;;;;;;4.15;1.40;;;10.50;60.20;;;;;;5030213;28;20235;-77
2021/05/06 13:14:08;;;;;;;1.10;1.00;;;10.60;62.30;;;;;;5026004;28;20243;-80
2021/05/06 13:16:45;;;;;;;0.77;0.77;;;10.70;62.10;;;;;;5022898;28;20251;-80
2021/05/06 13:19:15;;;;;;;1.45;0.95;;;10.80;60.50;;;;;;5030355;28;20203;-80
2021/05/06 13:21:49;;;;;;;2.47;1.05;;;11.00;61.10;;;;;;5039075;28;20290;-78
2021/05/06 13:24:15;;;;;;;1.77;1.02;;;11.00;60.70;;;;;;5038685;28;20231;-77
2021/05/06 13:26:44;;;;;;;1.80;0.95;;;11.00;59.60;;;;;;5037887;28;20230;-78
2021/05/06 13:29:14;;;;;;;1.35;0.90;;;11.00;61.30;;;;;;5038547;28;20291;-78
2021/05/06 13:31:42;;;;;;;1.67;0.93;;;11.10;59.00;;;;;;5047757;28;20191;-78
2021/05/06 13:34:12;;;;;;;1.08;0.80;;;11.30;59.90;;;;;;5044563;28;20246;-78
2021/05/06 13:36:40;;;;;;;1.10;0.90;;;11.30;59.90;;;;;;5044900;28;20350;-78
2021/05/06 13:39:08;;;;;;;0.75;0.68;;;11.00;59.60;;;;;;5043598;28;20234;-77
2021/05/06 13:41:38;;;;;;;0.70;0.70;;;10.70;59.40;;;;;;5043914;28;20215;-78
2021/05/06 13:44:06;;;;;;;0.80;0.80;;;10.40;62.90;;;;;;5042123;28;20258;-78
2021/05/06 13:46:34;;;;;;;0.75;0.75;;;10.50;63.60;;;;;;5049004;28;20251;-79
2021/05/06 13:49:01;;;;;;;0.85;0.85;;;10.70;63.90;;;;;;5051592;28;20206;-78
2021/05/06 13:51:30;;;;;;;1.30;0.98;;;10.90;61.80;;;;;;5053088;28;20230;-77
2021/05/06 13:53:57;;;;;;;0.80;0.80;;;10.90;61.30;;;;;;5047915;28;20238;-81
2021/05/06 13:56:24;;;;;;;0.70;0.70;;;10.90;62.20;;;;;;5039759;28;20215;-81
2021/05/06 13:58:51;;;;;;;0.73;0.73;;;10.90;61.80;;;;;;5042796;28;20203;-79
2021/05/06 14:01:19;;;;;;;2.53;1.15;;;10.90;61.00;;;;;;5045739;28;20214;-78
2021/05/06 14:03:46;;;;;;;0.70;0.70;;;10.80;60.30;;;;;;5047958;28;20249;-78
2021/05/06 14:06:12;;;;;;;1.23;1.00;;;10.70;62.40;;;;;;5042795;28;20230;-79
2021/05/06 14:08:39;;;;;;;1.02;0.98;;;10.70;62.20;;;;;;5048522;28;20207;-79
2021/05/06 14:11:07;;;;;;;0.90;0.90;;;10.40;63.70;;;;;;5050801;28;20778;-78
2021/05/06 14:13:34;;;;;;;2.60;1.10;;;10.20;67.40;;;;;;5042184;28;20235;-78
2021/05/06 14:16:01;;;;;;;2.15;1.27;;;10.00;67.60;;;;;;5045931;28;20195;-77
2021/05/06 14:18:28;;;;;;;1.42;1.30;;;10.00;70.00;;;;;;5055638;28;20377;-77
2021/05/06 14:21:00;;;;;;;1.48;1.38;;;9.90;74.10;;;;;;5044454;28;20261;-78
2021/05/06 14:23:27;;;;;;;2.47;1.40;;;9.60;78.30;;;;;;5036519;28;20238;-79
2021/05/06 14:25:54;;;;;;;1.67;1.52;;;9.60;80.50;;;;;;5040078;28;20270;-80
2021/05/06 14:28:29;;;;;;;4.63;1.60;;;9.80;81.30;;;;;;5038975;28;20222;-80
2021/05/06 14:30:56;;;;;;;3.33;1.40;;;10.00;81.10;;;;;;5043335;28;20230;-78
2021/05/06 14:33:22;;;;;;;2.90;2.08;;;10.10;79.50;;;;;;5051982;28;20222;-84
2021/05/06 14:35:48;;;;;;;1.98;1.77;;;10.10;78.20;;;;;;5050843;28;20229;-79
2021/05/06 14:38:15;;;;;;;1.63;1.52;;;10.20;78.20;;;;;;5047926;28;20211;-82
2021/05/06 14:40:41;;;;;;;1.45;1.35;;;10.20;76.40;;;;;;5033700;28;20210;-78
2021/05/06 14:43:08;;;;;;;1.60;1.33;;;10.20;76.40;;;;;;5012724;28;20319;-76
2021/05/06 14:45:35;;;;;;;1.50;1.40;;;10.00;77.00;;;;;;5012680;28;20627;-79
2021/05/06 14:48:02;;;;;;;1.60;1.50;;;10.00;78.80;;;;;;5014276;28;20747;-78
2021/05/06 14:50:29;;;;;;;2.10;1.60;;;10.00;78.90;;;;;;5017180;28;20278;-77
2021/05/06 14:52:56;;;;;;;5.70;1.70;;;10.00;80.00;;;;;;5014803;28;20263;-78
2021/05/06 14:55:23;;;;;;;1.95;1.75;;;10.10;80.90;;;;;;5014084;28;20250;-80
2021/05/06 14:57:50;;;;;;;2.53;1.63;;;10.20;82.10;;;;;;5012844;28;20208;-77
2021/05/06 15:00:18;;;;;;;3.63;1.92;;;10.20;81.60;;;;;;4999109;28;20204;-78
2021/05/06 15:02:46;;;;;;;1.50;1.40;;;10.10;83.20;;;;;;4998403;28;20275;-79
2021/05/06 15:05:12;;;;;;;2.22;2.00;;;10.30;82.10;;;;;;5006926;28;20292;-77
2021/05/06 15:07:39;;;;;;;5.97;2.40;;;10.20;80.50;;;;;;5016015;28;20382;-80
2021/05/06 15:10:07;;;;;;;3.45;1.90;;;10.30;84.40;;;;;;5025830;28;20224;-77
2021/05/06 15:12:47;;;;;;;2.53;1.92;;;10.50;84.00;;;;;;5027681;28;20227;-79
2021/05/06 15:15:16;;;;;;;1.98;1.88;;;10.50;81.50;;;;;;5021363;28;20315;-78
2021/05/06 15:17:43;;;;;;;2.60;2.40;;;10.40;80.00;;;;;;5024282;28;20223;-78
2021/05/06 15:20:12;;;;;;;2.78;2.00;;;10.70;82.90;;;;;;5020428;28;20222;-79
2021/05/06 15:22:38;;;;;;;2.45;1.80;;;10.90;80.70;;;;;;5019331;28;20216;-79
2021/05/06 15:25:06;;;;;;;3.28;2.10;;;11.00;77.20;;;;;;5016687;28;20263;-79
2021/05/06 15:27:32;;;;;;;3.13;2.13;;;11.10;77.30;;;;;;5015617;28;20200;-78
2021/05/06 15:29:59;;;;;;;3.15;1.90;;;10.90;77.10;;;;;;5016238;28;20227;-78
2021/05/06 15:32:25;;;;;;;1.98;1.65;;;11.20;78.60;;;;;;5015719;28;20295;-78
2021/05/06 15:34:55;;;;;;;2.00;1.80;;;11.20;77.40;;;;;;5020814;28;20196;-78